Accueil
METAR-TAF:

METAR-TAF

Aéroports :

Ancône, Italie

latitude: 43-37N, longitude: 013-22E, altitude: 12 m

Observation

Le bulletin a été fait il y a 1 heure et 4 minutes, à 12:50 UTC
Vent 8 kt de nord
Température 17°C
Humidité 29%
Pression 1022 hPa
Visibilité 10 km ou plus
pas de nuages en-dessous de 1500 mètres et pas de cumulonimbus.

METAR: LIPY 091250Z 36008KT CAVOK 17/M01 Q1022

Heure: 15:54 (13:54 UTC)

Prévision

Le bulletin a été fait il y a 2 heures et 54 minutes, à 11:00 UTC
Prévision valable du 09 à 12 UTC au 10 à 12 UTC
Vent 10 kt de nord/nord-ouest
Visibilité 10 km ou plus
pas de nuages en-dessous de 1500 mètres et pas de cumulonimbus.
Evoluant progressivement
du 09 à 16 UTC au 09 à 18 UTC
Vent 4 kt de direction variable
Evoluant progressivement
du 10 à 08 UTC au 10 à 10 UTC
Vent 10 kt de nord/nord-ouest

TAF: LIPY 091100Z 0912/1012 34010KT CAVOK BECMG 0916/0918 VRB04KT BECMG 1008/1010 34010KT

Observations et prévisions météorologiques de plus de 4000 aéroports (messages METAR et TAF).

Les stations disponibles sont représentées par des disques jaunes et rouges sur la carte.

Passer la souris dessus pour voir le nom de la station.

Cliquer dessus pour voir les observations et prévisions météorologiques.

Pour changer de carte: cliquez sur les boutons verts avec une croix noire pour zoomer, sur le bouton vert avec un tiret pour effectuer un zoom arrière, ou sur les flèches vertes pour les cartes adjacentes.


METAR-TAF: